East Pembroke, New York
Current Conditions -  °F | °C
As of 7:54 AM on Saturday 01 Nov 2014 (Local Time) from KBUF Reporting Station
Light Rain Light Rain  
Wind Chill: 31°   Ceiling: 600
Heat Index: 38°   Visibility: 9mi
Dew Point: 36°   Wind: 10mph
Humidity: 93%   Direction: 20°NNE
Pressure: 30.06"   Gusts: 23mph
Location:  43°N, 78.31°W
Report Text: KBUF 011154Z 02009G20KT 9SM -RA BKN006 OVC010 03/02 A3006 RMK AO2 SLP187 P0001 60003 70010 T00330022 10056 20033 53021
Loading
Personal Weather Stations






























Interactive Weather Map
Tropical Storm Tracking
New forecast layout! Learn more

10-Day Weather Forecast

Advertisements
Track Severe Weather on mobile